Time;durP1;ratioP1;P1;durP2;ratioP2;P2;SDS_P1;SDS_P2;PMS_P1;PMS_P2;Temp;Humidity;BMP_temperature;BMP_pressure;BME280_temperature;BME280_humidity;BME280_pressure;Samples;Min_cycle;Max_cycle;Signal;HPM_P1;HPM_P2
2022/03/28 00:00:47;;;;;;;29.98;8.05;;;13.30;99.90;;;13.56;64.90;102623.84;5074856;28;20128;-62
2022/03/28 00:03:15;;;;;;;25.05;7.78;;;13.30;99.90;;;13.57;64.99;102619.41;5075044;28;20144;-62
2022/03/28 00:05:44;;;;;;;29.27;8.52;;;13.30;99.90;;;13.59;65.02;102621.22;5074672;28;20043;-63
2022/03/28 00:08:12;;;;;;;33.03;8.55;;;13.30;99.90;;;13.60;64.91;102619.44;5073518;28;20044;-62
2022/03/28 00:10:41;;;;;;;25.23;7.72;;;13.30;99.90;;;13.53;64.85;102626.47;5074745;28;20051;-63
2022/03/28 00:13:09;;;;;;;27.02;8.30;;;13.20;99.90;;;13.61;64.77;102615.91;5074707;28;20115;-62
2022/03/28 00:15:39;;;;;;;28.70;7.75;;;13.20;99.90;;;13.57;64.83;102620.31;5075114;28;20036;-63
2022/03/28 00:18:09;;;;;;;29.13;8.17;;;13.30;99.90;;;13.33;65.67;102621.78;5074771;28;20052;-63
2022/03/28 00:20:39;;;;;;;23.90;7.53;;;13.10;99.90;;;13.30;65.83;102614.66;5074607;28;20098;-62
2022/03/28 00:23:07;;;;;;;31.25;8.25;;;13.00;99.90;;;13.34;65.91;102615.59;5074751;28;20044;-61
2022/03/28 00:25:36;;;;;;;28.63;8.15;;;13.00;99.90;;;13.37;65.91;102613.88;5073316;28;20102;-62
2022/03/28 00:28:05;;;;;;;25.98;7.85;;;13.00;99.90;;;13.15;66.20;102609.16;5074533;28;20136;-62
2022/03/28 00:30:34;;;;;;;26.70;8.57;;;12.90;99.90;;;13.30;66.00;102601.38;5090124;28;20498;-62
2022/03/28 00:33:04;;;;;;;30.58;8.55;;;13.00;99.90;;;13.35;65.79;102596.13;5074599;28;20048;-61
2022/03/28 00:35:35;;;;;;;32.33;7.93;;;13.00;99.90;;;13.31;66.00;102603.16;5074327;28;20451;-62
2022/03/28 00:38:04;;;;;;;25.48;7.93;;;13.00;99.90;;;13.33;65.81;102592.56;5074454;28;20544;-63
2022/03/28 00:40:33;;;;;;;32.92;9.15;;;13.00;99.90;;;13.18;65.66;102566.66;5074377;28;20470;-61
2022/03/28 00:43:05;;;;;;;31.00;8.88;;;13.00;99.90;;;13.29;65.92;102586.31;5074315;28;20044;-61
2022/03/28 00:45:37;;;;;;;33.70;8.57;;;13.00;99.90;;;13.32;65.87;102574.81;5073171;28;20052;-62
2022/03/28 00:48:08;;;;;;;29.45;8.77;;;13.00;99.90;;;13.32;65.70;102580.13;5074141;28;20445;-61
2022/03/28 00:50:37;;;;;;;31.75;9.45;;;13.00;99.90;;;13.29;65.71;102575.69;5074408;28;20068;-62
2022/03/28 00:53:11;;;;;;;27.52;8.52;;;13.00;99.90;;;13.26;65.75;102572.97;5074079;28;20044;-62
2022/03/28 00:55:40;;;;;;;29.52;8.30;;;12.90;99.90;;;13.19;65.84;102568.47;5074092;28;20048;-62
2022/03/28 00:58:09;;;;;;;28.77;8.32;;;12.90;99.90;;;13.20;66.06;102570.22;5072841;28;20056;-62
2022/03/28 01:00:38;;;;;;;29.42;8.45;;;12.90;99.90;;;13.16;65.94;102562.22;5073927;28;20501;-62
2022/03/28 01:03:08;;;;;;;28.08;8.00;;;12.90;99.90;;;13.15;65.91;102566.63;5074173;28;20498;-62
2022/03/28 01:05:37;;;;;;;29.67;8.70;;;12.80;99.90;;;13.10;65.96;102556.84;5073924;28;20132;-61
2022/03/28 01:08:06;;;;;;;29.55;7.97;;;12.80;99.90;;;13.07;66.30;102546.16;5073827;28;20561;-62
2022/03/28 01:10:34;;;;;;;29.95;8.57;;;12.80;99.90;;;13.00;66.20;102547.81;5073876;28;20048;-62
2022/03/28 01:13:03;;;;;;;30.02;8.20;;;12.70;99.90;;;13.06;66.16;102549.69;5073845;28;20119;-61
2022/03/28 01:15:31;;;;;;;30.38;8.55;;;12.70;99.90;;;12.92;66.40;102546.81;5073679;28;20584;-62
2022/03/28 01:18:11;;;;;;;33.55;8.55;;;12.70;99.90;;;12.87;66.69;102540.59;5073925;28;20082;-62
2022/03/28 01:20:42;;;;;;;36.10;9.43;;;12.60;99.90;;;12.88;66.77;102545.00;5074083;28;20041;-61
2022/03/28 01:23:12;;;;;;;37.25;8.13;;;12.60;99.90;;;12.87;66.76;102548.53;5073900;28;20390;-61
2022/03/28 01:25:40;;;;;;;27.40;8.35;;;12.60;99.90;;;12.83;66.95;102541.41;5074117;28;20064;-61
2022/03/28 01:28:09;;;;;;;29.27;8.60;;;12.60;99.90;;;12.84;66.82;102537.88;5072159;28;20052;-61
2022/03/28 01:30:38;;;;;;;30.52;8.27;;;12.60;99.90;;;12.81;67.03;102531.63;5073537;28;20059;-62
2022/03/28 01:33:06;;;;;;;30.73;9.48;;;12.50;99.90;;;12.78;66.89;102529.81;5073557;28;20125;-61
2022/03/28 01:35:37;;;;;;;33.95;9.32;;;12.50;99.90;;;12.79;66.91;102528.97;5073195;28;20182;-61
2022/03/28 01:38:08;;;;;;;32.38;8.52;;;12.50;99.90;;;12.75;66.91;102527.13;5073162;28;20494;-62
2022/03/28 01:40:41;;;;;;;27.65;8.43;;;12.40;99.90;;;12.39;66.77;102465.56;5073475;28;20624;-62
2022/03/28 01:43:10;;;;;;;32.17;8.48;;;12.40;99.90;;;12.76;66.83;102523.59;5073064;28;20068;-61
2022/03/28 01:45:38;;;;;;;32.70;9.65;;;12.40;99.90;;;12.73;66.96;102520.00;5072939;28;20510;-62
2022/03/28 01:48:09;;;;;;;30.55;8.02;;;12.40;99.90;;;12.66;66.78;102516.38;5072852;28;20116;-61
2022/03/28 01:50:38;;;;;;;27.35;8.07;;;12.40;99.90;;;12.69;66.95;102516.44;5072883;28;20435;-61
2022/03/28 01:53:07;;;;;;;30.27;8.75;;;12.40;99.90;;;12.00;67.13;102409.31;5072511;28;20064;-61
2022/03/28 01:55:39;;;;;;;29.80;8.60;;;12.30;99.90;;;12.66;66.77;102516.38;5071751;28;20410;-61
2022/03/28 01:58:08;;;;;;;31.27;9.05;;;12.30;99.90;;;12.54;67.08;102506.47;5073333;28;20481;-61
2022/03/28 02:00:37;;;;;;;25.17;8.55;;;12.30;99.90;;;12.62;67.01;102512.78;5072712;28;20098;-61
2022/03/28 02:03:05;;;;;;;32.55;8.55;;;12.30;99.90;;;12.62;67.00;102509.22;5072706;28;20048;-62
2022/03/28 02:05:34;;;;;;;28.38;8.05;;;12.30;99.90;;;12.64;66.81;102504.84;5071452;28;20414;-61
2022/03/28 02:08:03;;;;;;;26.02;8.55;;;12.30;99.90;;;12.41;66.80;102463.81;5072426;28;20466;-61
2022/03/28 02:10:31;;;;;;;29.92;7.65;;;12.30;99.90;;;12.61;66.65;102500.41;5072849;28;20044;-61
2022/03/28 02:13:01;;;;;;;32.83;9.10;;;12.30;99.90;;;12.62;66.74;102495.94;5072474;28;20091;-61
2022/03/28 02:15:29;;;;;;;32.47;8.95;;;12.30;99.90;;;12.64;66.63;102488.91;5072716;28;20044;-61
2022/03/28 02:17:59;;;;;;;26.13;8.40;;;12.40;99.90;;;12.59;66.50;102488.88;5072741;28;20048;-61
2022/03/28 02:20:27;;;;;;;32.75;8.68;;;12.30;99.90;;;12.56;66.78;102482.63;5072439;28;20110;-61
2022/03/28 02:22:56;;;;;;;30.35;8.32;;;12.30;99.90;;;12.48;66.86;102473.66;5072367;28;20127;-61
2022/03/28 02:25:24;;;;;;;29.90;8.65;;;12.20;99.90;;;12.52;66.83;102480.81;5072282;28;20048;-61
2022/03/28 02:27:53;;;;;;;31.13;8.05;;;12.20;99.90;;;12.52;66.97;102486.13;5072745;28;20462;-62
2022/03/28 02:30:22;;;;;;;26.50;9.05;;;12.20;99.90;;;12.34;67.19;102481.44;5070904;28;20049;-61
2022/03/28 02:32:51;;;;;;;33.00;8.50;;;12.10;99.90;;;12.39;67.29;102484.13;5072527;28;20085;-61
2022/03/28 02:35:19;;;;;;;32.78;8.88;;;12.10;99.90;;;12.36;67.19;102476.16;5072103;28;20297;-61
2022/03/28 02:37:48;;;;;;;28.42;8.48;;;12.10;99.90;;;12.37;67.18;102480.56;5072739;28;20078;-61
2022/03/28 02:40:16;;;;;;;33.85;8.95;;;12.10;99.90;;;12.32;67.52;102469.91;5072203;28;20074;-61
2022/03/28 02:42:45;;;;;;;32.80;8.88;;;12.10;99.90;;;12.33;67.41;102468.16;5071968;28;20045;-61
2022/03/28 02:45:13;;;;;;;30.10;9.13;;;12.00;99.90;;;12.19;67.56;102459.09;5071805;28;20072;-61
2022/03/28 02:47:43;;;;;;;23.92;8.10;;;12.00;99.90;;;12.26;67.41;102450.34;5071907;28;20040;-61
2022/03/28 02:50:11;;;;;;;30.50;8.73;;;11.90;99.90;;;12.21;67.65;102446.75;5071991;28;20045;-61
2022/03/28 02:52:40;;;;;;;32.40;8.00;;;11.90;99.90;;;12.16;67.47;102440.47;5071693;28;20462;-61
2022/03/28 02:55:09;;;;;;;30.85;8.65;;;11.90;99.90;;;11.83;67.96;102397.56;5072037;28;20425;-61
2022/03/28 02:57:38;;;;;;;30.33;8.40;;;11.80;99.90;;;11.91;68.09;102411.81;5071894;28;20147;-61
2022/03/28 03:00:10;;;;;;;25.95;7.85;;;11.70;99.90;;;11.39;68.20;102319.97;5071675;28;20052;-61
2022/03/28 03:02:39;;;;;;;33.58;9.70;;;11.70;99.90;;;11.57;68.02;102352.06;5071724;28;20469;-61
2022/03/28 03:05:11;;;;;;;30.65;9.00;;;11.70;99.90;;;11.96;68.20;102434.00;5070583;28;20045;-61
2022/03/28 03:07:40;;;;;;;33.03;9.30;;;11.60;99.90;;;11.72;68.20;102403.59;5071656;28;20064;-61
2022/03/28 03:10:10;;;;;;;30.67;8.07;;;11.60;99.90;;;11.85;68.57;102431.16;5070371;28;20460;-61
2022/03/28 03:12:38;;;;;;;29.33;8.47;;;11.60;99.90;;;11.74;68.39;102401.84;5072109;28;20052;-61
2022/03/28 03:15:08;;;;;;;32.05;9.32;;;11.70;99.90;;;11.15;68.41;102295.78;5071532;28;20068;-61
2022/03/28 03:17:36;;;;;;;32.40;8.88;;;11.60;99.90;;;11.84;68.45;102412.59;5071468;28;20036;-61
2022/03/28 03:20:07;;;;;;;36.28;10.20;;;11.50;99.90;;;11.82;68.38;102411.69;5071821;28;20040;-61
2022/03/28 03:22:37;;;;;;;33.03;8.90;;;11.50;99.90;;;11.81;68.24;102416.06;5071554;28;20086;-61
2022/03/28 03:25:06;;;;;;;31.13;9.10;;;11.50;99.90;;;11.82;68.40;102409.94;5071986;28;20051;-61
2022/03/28 03:27:38;;;;;;;32.63;9.25;;;11.50;99.90;;;11.71;68.36;102411.53;5071373;28;20076;-61
2022/03/28 03:30:09;;;;;;;30.30;8.88;;;11.50;99.90;;;11.70;68.57;102410.63;5071349;28;20541;-62
2022/03/28 03:32:38;;;;;;;26.58;9.50;;;11.40;99.90;;;11.59;68.74;102414.81;5071440;28;20090;-61
2022/03/28 03:35:08;;;;;;;34.15;9.77;;;11.30;99.90;;;11.30;69.66;102410.81;5071314;28;20131;-61
2022/03/28 03:37:38;;;;;;;35.80;9.32;;;11.10;99.90;;;10.96;70.02;102378.38;5071348;28;20532;-61
2022/03/28 03:40:10;;;;;;;33.20;9.75;;;11.00;99.90;;;11.20;70.32;102413.25;5071723;28;20088;-61
2022/03/28 03:42:38;;;;;;;30.40;9.85;;;10.90;99.90;;;11.12;70.69;102405.19;5071461;28;20398;-61
2022/03/28 03:45:08;;;;;;;30.27;9.43;;;10.80;99.90;;;11.10;70.80;102406.91;5071418;28;20151;-62
2022/03/28 03:47:37;;;;;;;29.73;9.45;;;10.80;99.90;;;10.90;71.40;102405.63;5071475;28;20117;-61
2022/03/28 03:50:07;;;;;;;28.50;9.32;;;10.70;99.90;;;10.59;72.05;102382.09;5071240;28;20483;-62
2022/03/28 03:52:38;;;;;;;31.17;10.38;;;10.50;99.90;;;10.70;72.58;102407.03;5071940;28;20106;-62
2022/03/28 03:55:08;;;;;;;27.73;9.50;;;10.40;99.90;;;10.91;71.86;102391.56;5071870;28;20044;-61
2022/03/28 03:57:37;;;;;;;32.65;10.20;;;10.50;99.90;;;10.76;71.96;102373.59;5071706;28;20056;-62
2022/03/28 04:00:08;;;;;;;32.58;10.48;;;10.60;99.90;;;10.97;71.69;102394.31;5071331;28;20053;-61
2022/03/28 04:02:40;;;;;;;32.70;10.95;;;10.60;99.90;;;11.04;71.56;102388.25;5071230;28;20106;-61
2022/03/28 04:05:09;;;;;;;32.25;10.15;;;10.70;99.90;;;11.10;71.28;102384.81;5071151;28;20072;-63
2022/03/28 04:07:39;;;;;;;29.33;10.13;;;10.80;99.90;;;11.10;71.58;102385.72;5071599;28;20072;-59
2022/03/28 04:10:08;;;;;;;29.20;10.73;;;10.80;99.90;;;11.05;71.45;102390.06;5071145;28;20487;-61
2022/03/28 04:12:37;;;;;;;30.65;10.75;;;10.80;99.90;;;10.97;71.58;102386.38;5071135;28;20127;-60
2022/03/28 04:15:07;;;;;;;31.63;10.68;;;10.80;99.90;;;10.98;71.35;102393.44;5071119;28;20044;-60
2022/03/28 04:17:41;;;;;;;32.40;11.20;;;10.70;99.90;;;10.89;71.46;102380.03;5074982;28;20055;-59
2022/03/28 04:20:12;;;;;;;29.25;10.73;;;10.70;99.90;;;10.99;71.29;102394.34;5075191;28;20048;-60
2022/03/28 04:22:43;;;;;;;29.65;11.50;;;10.70;99.90;;;10.87;71.45;102382.66;5074623;28;20052;-61
2022/03/28 04:25:11;;;;;;;35.38;11.65;;;10.70;99.90;;;10.83;71.80;102387.88;5074706;28;20362;-62
2022/03/28 04:27:40;;;;;;;27.45;10.43;;;10.60;99.90;;;10.89;71.42;102382.69;5074594;28;20438;-61
2022/03/28 04:30:12;;;;;;;31.52;11.48;;;10.60;99.90;;;10.97;71.63;102385.47;5072993;28;20486;-61
2022/03/28 04:32:41;;;;;;;32.17;12.00;;;10.70;99.90;;;11.02;71.31;102379.38;5074778;28;20052;-62
2022/03/28 04:35:11;;;;;;;34.50;11.63;;;10.70;99.90;;;10.87;70.99;102339.41;5074072;28;20417;-61
2022/03/28 04:37:43;;;;;;;29.38;11.15;;;10.80;99.90;;;11.08;70.87;102373.31;5074102;28;20409;-61
2022/03/28 04:40:16;;;;;;;30.85;11.02;;;10.80;99.90;;;11.06;70.78;102365.34;5074263;28;20478;-61
2022/03/28 04:42:45;;;;;;;34.30;11.70;;;10.70;99.90;;;11.10;71.24;102356.59;5074121;28;20052;-61
2022/03/28 04:45:14;;;;;;;27.80;11.32;;;10.80;99.90;;;11.09;70.77;102349.50;5074559;28;20052;-61
2022/03/28 04:47:42;;;;;;;35.63;12.10;;;10.80;99.90;;;11.10;70.93;102361.00;5073897;28;20131;-61
2022/03/28 04:50:11;;;;;;;31.92;12.57;;;10.80;99.90;;;11.00;71.07;102353.75;5072670;28;20336;-61
2022/03/28 04:52:39;;;;;;;30.98;12.00;;;10.70;99.90;;;11.05;71.07;102360.03;5073824;28;20119;-61
2022/03/28 04:55:10;;;;;;;27.88;11.27;;;10.70;99.90;;;11.05;71.12;102357.38;5073792;28;20455;-61
2022/03/28 04:57:39;;;;;;;36.50;12.75;;;10.70;99.90;;;10.80;71.19;102362.22;5073812;28;20403;-61
2022/03/28 05:00:10;;;;;;;27.77;12.43;;;10.60;99.90;;;10.62;72.27;102367.19;5073845;28;20044;-61
2022/03/28 05:02:39;;;;;;;28.02;12.63;;;10.40;99.90;;;10.02;74.45;102368.53;5074335;28;20044;-61
2022/03/28 05:05:08;;;;;;;30.05;11.65;;;9.80;99.90;;;10.06;74.15;102358.91;5073915;28;20044;-61
2022/03/28 05:07:37;;;;;;;29.98;12.82;;;9.80;99.90;;;10.12;74.57;102359.06;5073610;28;20068;-61
2022/03/28 05:10:09;;;;;;;30.40;12.32;;;9.80;99.90;;;9.89;74.94;102364.72;5073454;28;20044;-61
2022/03/28 05:12:38;;;;;;;32.28;12.85;;;9.70;99.90;;;9.70;75.92;102359.88;5073519;28;20509;-61
2022/03/28 05:15:07;;;;;;;30.02;13.15;;;9.50;99.90;;;9.65;76.22;102366.81;5073468;28;20055;-61
2022/03/28 05:17:37;;;;;;;34.38;13.85;;;9.40;99.90;;;9.81;76.05;102366.28;5073570;28;20559;-61
2022/03/28 05:20:08;;;;;;;31.02;13.05;;;9.50;99.90;;;9.68;75.96;102360.69;5073727;28;20131;-61
2022/03/28 05:22:37;;;;;;;30.80;12.95;;;9.50;99.90;;;9.84;76.06;102361.09;5089204;28;20052;-61
2022/03/28 05:25:10;;;;;;;30.80;13.30;;;9.60;99.90;;;9.99;76.00;102360.50;5073667;28;20067;-61
2022/03/28 05:27:45;;;;;;;30.15;13.38;;;9.70;99.90;;;10.10;75.46;102359.06;5072810;28;20094;-61
2022/03/28 05:30:15;;;;;;;31.65;14.10;;;9.70;99.90;;;10.20;75.28;102354.84;5073912;28;20386;-61
2022/03/28 05:32:43;;;;;;;35.88;14.13;;;9.90;99.90;;;10.31;75.06;102348.03;5106031;28;20459;-61
2022/03/28 05:35:11;;;;;;;30.30;14.32;;;10.00;99.90;;;10.39;74.57;102342.03;5073089;28;20048;-61
2022/03/28 05:37:41;;;;;;;36.15;15.40;;;10.10;99.90;;;10.43;74.39;102338.56;5073311;28;20041;-61
2022/03/28 05:40:13;;;;;;;33.50;15.57;;;10.10;99.90;;;10.52;73.81;102340.50;5072734;28;20483;-61
2022/03/28 05:42:41;;;;;;;37.28;15.68;;;10.20;99.90;;;10.56;73.93;102337.06;5073398;28;20297;-61
2022/03/28 05:45:12;;;;;;;29.30;13.75;;;10.30;99.90;;;10.45;73.78;102334.19;5073177;28;20106;-61
2022/03/28 05:47:41;;;;;;;29.20;14.73;;;10.30;99.90;;;10.15;75.20;102338.88;5072843;28;20037;-61
2022/03/28 05:50:10;;;;;;;33.00;14.05;;;10.00;99.90;;;10.25;74.92;102339.97;5072711;28;20071;-61
2022/03/28 05:52:38;;;;;;;30.77;15.98;;;10.00;99.90;;;10.26;75.21;102344.41;5073008;28;20040;-61
2022/03/28 05:55:09;;;;;;;38.65;18.08;;;10.00;99.90;;;10.17;75.56;102334.50;5073185;28;20491;-61
2022/03/28 05:57:39;;;;;;;32.17;18.05;;;9.90;99.90;;;10.10;76.03;102337.00;5072596;28;20120;-62
2022/03/28 06:00:10;;;;;;;33.42;18.70;;;9.90;99.90;;;10.02;76.81;102345.63;5072814;28;20049;-61
2022/03/28 06:02:41;;;;;;;33.95;18.45;;;9.80;99.90;;;9.59;78.81;102339.34;5073081;28;20048;-61
2022/03/28 06:05:11;;;;;;;32.80;18.65;;;9.40;99.90;;;9.66;79.17;102306.91;5072728;28;20041;-61
2022/03/28 06:07:40;;;;;;;34.40;18.63;;;9.40;99.90;;;10.02;78.83;102339.44;5072524;28;20084;-61
2022/03/28 06:10:10;;;;;;;37.00;19.08;;;9.70;99.90;;;9.74;79.42;102337.94;5072154;28;20413;-61
2022/03/28 06:12:39;;;;;;;36.22;18.67;;;9.50;99.90;;;10.03;79.49;102331.53;5104644;28;20071;-61
2022/03/28 06:15:09;;;;;;;34.00;18.33;;;9.70;99.90;;;10.44;78.51;102320.94;5072463;28;20048;-62
2022/03/28 06:17:37;;;;;;;27.63;17.00;;;10.00;99.90;;;10.65;77.21;102327.53;5071147;28;20291;-61
2022/03/28 06:20:08;;;;;;;32.65;19.50;;;10.30;99.90;;;10.82;77.13;102328.72;5072566;28;20418;-62
2022/03/28 06:22:36;;;;;;;26.75;18.25;;;10.50;99.90;;;11.11;76.25;102321.28;5072370;28;20045;-62
2022/03/28 06:25:07;;;;;;;31.05;18.60;;;10.80;99.90;;;11.22;75.75;102327.66;5071948;28;20063;-61
2022/03/28 06:27:57;;;;;;;34.50;19.02;;;10.90;99.90;;;10.99;76.60;102330.78;5071891;28;20132;-62
2022/03/28 06:30:25;;;;;;;27.77;18.17;;;10.70;99.90;;;11.12;75.98;102338.97;5072542;28;20075;-63
2022/03/28 06:32:54;;;;;;;28.95;19.00;;;10.80;99.90;;;10.90;76.37;102339.44;5071841;28;20043;-62
2022/03/28 06:35:23;;;;;;;29.55;18.58;;;10.70;99.90;;;11.24;76.29;102332.97;5072208;28;20056;-62
2022/03/28 06:37:52;;;;;;;35.67;19.10;;;10.80;99.90;;;10.77;76.35;102332.16;5071942;28;20091;-60
2022/03/28 06:40:21;;;;;;;29.83;18.42;;;10.70;99.90;;;11.29;76.19;102329.53;5071354;28;20079;-61
2022/03/28 06:42:50;;;;;;;34.28;19.63;;;10.90;99.90;;;11.29;76.17;102326.88;5071784;28;20120;-61
2022/03/28 06:45:20;;;;;;;28.85;18.40;;;10.90;99.90;;;11.49;74.76;102322.81;5071705;28;20186;-62
2022/03/28 06:47:52;;;;;;;38.88;19.98;;;11.20;99.90;;;11.74;74.45;102332.03;5072068;28;20052;-62
2022/03/28 06:50:23;;;;;;;26.65;17.10;;;11.40;99.90;;;12.09;73.13;102332.50;5071920;28;20075;-62
2022/03/28 06:52:53;;;;;;;26.45;18.48;;;11.70;99.90;;;11.83;73.77;102326.84;5071829;28;20048;-61
2022/03/28 06:55:23;;;;;;;31.73;18.02;;;11.50;99.90;;;11.47;73.99;102321.88;5071729;28;20525;-62
2022/03/28 06:57:51;;;;;;;30.27;18.23;;;11.20;99.90;;;11.16;74.79;102319.63;5071620;28;20041;-62
2022/03/28 07:00:22;;;;;;;36.70;18.83;;;11.00;99.90;;;11.31;74.04;102327.81;5071656;28;20072;-62
2022/03/28 07:02:50;;;;;;;33.00;17.90;;;11.10;99.90;;;10.90;75.54;102323.56;5071929;28;20525;-62
2022/03/28 07:05:18;;;;;;;30.40;17.00;;;10.70;99.90;;;11.07;75.72;102322.09;5071537;28;20110;-63
2022/03/28 07:07:49;;;;;;;29.10;16.52;;;10.70;99.90;;;10.20;77.58;102294.03;5071660;28;20048;-62
2022/03/28 07:10:19;;;;;;;29.05;16.88;;;10.20;99.90;;;10.37;77.83;102311.13;5104486;28;20149;-62
2022/03/28 07:12:48;;;;;;;38.20;19.00;;;10.10;99.90;;;10.93;76.59;102317.44;5071671;28;20036;-61
2022/03/28 07:15:17;;;;;;;31.67;17.58;;;10.50;99.90;;;11.38;75.62;102316.44;5071562;28;20068;-61
2022/03/28 07:17:51;;;;;;;31.02;17.60;;;10.90;99.90;;;11.04;75.69;102305.28;5072080;28;20041;-61
2022/03/28 07:20:20;;;;;;;31.05;18.85;;;10.90;99.90;;;11.47;75.82;102321.00;5071715;28;20135;-62
2022/03/28 07:22:49;;;;;;;34.00;17.95;;;11.10;99.90;;;11.86;74.14;102316.31;5071229;28;20116;-63
2022/03/28 07:25:18;;;;;;;33.90;17.38;;;11.40;99.90;;;12.21;72.71;102322.97;5071828;28;20036;-64
2022/03/28 07:27:49;;;;;;;32.65;18.00;;;11.80;99.90;;;12.64;71.37;102321.66;5071174;28;20510;-62
2022/03/28 07:30:18;;;;;;;26.90;16.17;;;12.20;99.90;;;12.75;70.13;102314.72;5071371;28;20040;-62
2022/03/28 07:32:50;;;;;;;30.80;16.63;;;12.40;99.90;;;13.19;69.03;102313.38;5071270;28;20079;-62
2022/03/28 07:35:21;;;;;;;26.88;15.93;;;12.80;99.90;;;13.26;68.12;102275.31;5070186;28;20098;-62
2022/03/28 07:37:51;;;;;;;31.60;17.15;;;13.10;99.90;;;13.81;66.90;102312.88;5071509;28;20411;-62
2022/03/28 07:40:20;;;;;;;29.02;16.30;;;13.50;99.90;;;13.63;66.02;102313.66;5071161;28;20049;-62
2022/03/28 07:42:49;;;;;;;24.00;16.35;;;13.40;99.90;;;12.80;69.20;102306.75;5071457;28;20425;-63
2022/03/28 07:45:17;;;;;;;29.02;16.15;;;12.60;99.90;;;13.42;68.08;102306.47;5071747;28;20052;-63
2022/03/28 07:47:46;;;;;;;25.98;16.17;;;13.10;99.90;;;13.85;67.56;102312.03;5071404;28;20474;-62
2022/03/28 07:50:15;;;;;;;25.58;15.45;;;13.40;99.90;;;13.51;67.21;102301.19;5071335;28;20040;-64
2022/03/28 07:52:44;;;;;;;26.40;16.23;;;13.30;99.90;;;12.91;68.21;102300.69;5075133;28;20044;-65
2022/03/28 07:55:13;;;;;;;30.25;15.63;;;12.80;99.90;;;13.28;68.05;102313.44;5073808;28;20135;-57
2022/03/28 07:57:43;;;;;;;25.27;16.25;;;12.90;99.90;;;13.34;67.85;102312.56;5075216;28;20046;-56
2022/03/28 08:00:16;;;;;;;28.85;17.23;;;13.00;99.90;;;12.79;69.79;102310.31;5075228;28;20049;-57
2022/03/28 08:02:53;;;;;;;26.58;15.90;;;12.50;99.90;;;13.90;68.61;102311.16;5074955;28;20059;-57
2022/03/28 08:05:24;;;;;;;26.17;15.88;;;13.30;99.90;;;14.61;66.59;102297.28;5074702;28;20460;-56
2022/03/28 08:07:54;;;;;;;25.35;15.55;;;14.00;99.90;;;14.68;64.17;102302.59;5075013;28;20418;-58
2022/03/28 08:10:24;;;;;;;26.80;16.40;;;14.40;99.90;;;13.05;66.10;102300.81;5090479;28;20102;-57
2022/03/28 08:12:53;;;;;;;29.77;16.08;;;13.30;99.90;;;13.81;67.80;102310.22;5074528;28;20079;-57
2022/03/28 08:15:22;;;;;;;26.10;16.67;;;13.30;99.90;;;14.56;64.48;102313.22;5075162;28;20044;-57
2022/03/28 08:17:51;;;;;;;26.65;16.30;;;14.10;99.90;;;13.75;65.65;102307.53;5074625;28;20406;-57
2022/03/28 08:20:20;;;;;;;29.65;16.70;;;13.50;99.90;;;13.05;66.92;102299.06;5074580;28;20044;-57
2022/03/28 08:22:51;;;;;;;27.20;17.00;;;13.00;99.90;;;12.64;69.75;102301.31;5074620;28;20048;-57
2022/03/28 08:25:21;;;;;;;28.40;16.85;;;12.40;99.90;;;12.47;69.84;102294.03;5074925;28;20075;-56
2022/03/28 08:27:50;;;;;;;27.20;17.08;;;12.30;99.90;;;12.75;70.35;102296.13;5107547;28;20049;-56
2022/03/28 08:30:19;;;;;;;28.67;18.17;;;12.30;99.90;;;13.54;69.37;102293.25;5074822;28;20033;-56
2022/03/28 08:32:48;;;;;;;27.70;16.30;;;13.00;99.90;;;13.88;68.09;102290.78;5074378;28;20094;-57
2022/03/28 08:35:16;;;;;;;28.67;16.85;;;13.40;99.90;;;14.79;66.15;102284.84;5074802;28;20558;-56
2022/03/28 08:37:45;;;;;;;32.05;16.67;;;14.20;99.90;;;13.67;65.93;102287.97;5074351;28;20123;-57
2022/03/28 08:40:17;;;;;;;27.08;16.48;;;13.60;99.90;;;13.79;66.98;102278.31;5074630;28;20049;-57
2022/03/28 08:42:47;;;;;;;24.48;16.10;;;13.50;99.90;;;13.85;68.95;102275.69;5074565;28;20041;-58
2022/03/28 08:45:17;;;;;;;29.10;17.40;;;13.40;99.90;;;14.98;66.13;102283.97;5074714;28;20194;-57
2022/03/28 08:47:47;;;;;;;30.58;16.88;;;14.30;99.90;;;15.00;63.34;102282.19;5074349;28;20049;-56
2022/03/28 08:50:37;;;;;;;28.85;17.40;;;14.70;99.90;;;14.59;64.96;102280.41;5074226;28;20444;-57
2022/03/28 08:53:06;;;;;;;26.20;16.40;;;14.30;99.90;;;15.02;65.19;102275.09;5074179;28;20052;-56
2022/03/28 08:55:36;;;;;;;25.73;16.38;;;14.50;99.90;;;15.31;62.22;102275.97;5074125;28;20371;-56
2022/03/28 08:58:06;;;;;;;31.98;17.42;;;15.00;99.90;;;15.70;62.74;102277.69;5074555;28;20126;-56
2022/03/28 09:00:34;;;;;;;27.02;16.98;;;15.30;99.90;;;16.13;60.33;102275.75;5073883;28;20171;-56
2022/03/28 09:03:03;;;;;;;31.27;16.83;;;15.80;99.90;;;16.00;58.84;102284.72;5073962;28;20052;-56
2022/03/28 09:05:34;;;;;;;28.38;16.88;;;15.80;99.90;;;15.14;61.24;102280.44;5073684;28;20520;-56
2022/03/28 09:08:04;;;;;;;;;;;15.20;99.90;;;15.27;61.93;102286.66;5074586;28;20049;-57
2022/03/28 09:10:46;;;;;;;30.77;18.38;;;14.80;99.90;;;14.58;61.94;102283.94;5073987;28;19943;-57
2022/03/28 09:13:18;;;;;;;26.25;17.20;;;14.40;99.90;;;14.74;63.13;102280.41;5073713;28;20056;-57
2022/03/28 09:15:51;;;;;;;25.05;17.30;;;14.30;99.90;;;14.99;63.12;102280.44;5073489;28;20044;-57
2022/03/28 09:18:25;;;;;;;25.17;16.63;;;14.50;99.90;;;14.36;64.26;102285.69;5073573;28;20044;-57
2022/03/28 09:20:57;;;;;;;28.23;16.63;;;14.10;99.90;;;14.52;65.31;102274.16;5073539;28;20521;-57
2022/03/28 09:23:40;;;;;;;27.00;17.85;;;14.00;99.90;;;14.58;64.70;102276.84;5073621;28;20048;-57
2022/03/28 09:26:18;;;;;;;29.33;17.58;;;14.10;99.90;;;14.28;64.14;102188.94;5073404;28;20056;-58
2022/03/28 09:28:53;;;;;;;26.83;18.48;;;14.30;99.90;;;15.06;62.87;102268.00;5073362;28;20044;-57
2022/03/28 09:31:30;;;;;;;30.75;18.35;;;14.60;99.90;;;15.43;62.57;102276.91;5073351;28;20086;-57
2022/03/28 09:34:09;;;;;;;29.35;17.77;;;14.90;99.90;;;16.01;61.20;102271.34;5073287;28;20132;-57
2022/03/28 09:36:56;;;;;;;31.75;19.35;;;15.50;99.90;;;16.36;60.02;102267.63;5073222;28;20040;-57
2022/03/28 09:39:28;;;;;;;35.80;18.17;;;15.80;99.90;;;16.80;58.51;102274.47;5073135;28;20106;-57
2022/03/28 09:42:04;;;;;;;29.92;17.85;;;16.30;99.90;;;16.72;58.21;102271.00;5073258;28;20493;-57
2022/03/28 09:44:36;;;;;;;31.10;17.95;;;16.40;99.90;;;16.41;57.60;102268.50;5073290;28;20052;-58
2022/03/28 09:47:10;;;;;;;28.35;17.48;;;16.20;99.90;;;16.39;58.16;102252.50;5073099;28;20490;-58
2022/03/28 09:49:42;;;;;;;29.13;17.83;;;16.00;99.90;;;16.68;57.92;102253.22;5073109;28;20138;-58
2022/03/28 09:52:12;;;;;;;31.73;17.80;;;16.20;99.90;;;17.08;57.89;102260.00;5071925;28;20466;-58
2022/03/28 09:54:54;;;;;;;30.05;18.33;;;16.60;99.90;;;16.86;57.22;102249.53;5073140;28;20045;-58
2022/03/28 09:57:27;;;;;;;39.47;19.10;;;16.50;99.90;;;16.71;57.72;102237.16;5073203;28;20037;-57
2022/03/28 10:00:09;;;;;;;28.98;18.05;;;16.40;99.90;;;16.95;56.69;102247.66;5073059;28;20459;-57
2022/03/28 10:02:38;;;;;;;32.17;18.73;;;16.60;99.90;;;17.01;57.20;102244.03;5088935;28;20508;-58
2022/03/28 10:05:08;;;;;;;29.10;17.77;;;16.70;99.90;;;16.86;57.03;102228.13;5073470;28;20098;-58
2022/03/28 10:07:37;;;;;;;28.58;18.40;;;16.60;99.90;;;16.96;57.29;102237.81;5073119;28;20044;-58
2022/03/28 10:10:07;;;;;;;27.25;18.02;;;16.60;99.90;;;17.28;56.46;102243.78;5073044;28;20041;-58
2022/03/28 10:12:38;;;;;;;;;;;16.80;99.90;;;17.69;56.13;102240.69;5073299;28;20044;-57
2022/03/28 10:15:08;;;;;;;27.73;17.50;;;17.20;99.90;;;17.90;56.36;102201.13;5072078;28;19940;-58